La Malbaie, Canada
Current Conditions -  °F | °C
As of 3:00 AM on Friday 28 Nov 2014 (Local Time) from CYBG Reporting Station
Overcast Overcast  
Wind Chill:   Ceiling: 10000
Heat Index: 10°   Visibility: 25mi
Dew Point:   Wind: 5mph
Humidity: 92%   Direction: 270°W
Pressure: 30.08"   Gusts: NA
Location:  47.66°N, 70.15°W
Report Text: CYBG 280800Z 27004KT 25SM SCT080 OVC100 M12/M13 A3008 RMK AC2AC2 SLP198
Loading
Personal Weather Stations






























Interactive Weather Map New forecast layout! Learn more

10-Day Weather Forecast

Advertisements
Track Severe Weather on mobile